createdAt,value
2023-02-01T00:00:37.967Z,4.86
2023-02-01T00:01:37.956Z,4.92
2023-02-01T00:02:37.943Z,4.90
2023-02-01T00:03:38.007Z,4.92
2023-02-01T00:04:58.898Z,4.87
2023-02-01T00:05:37.896Z,4.95
2023-02-01T00:06:37.863Z,4.97
2023-02-01T00:07:37.846Z,5.00
2023-02-01T00:08:37.808Z,4.90
2023-02-01T00:09:37.800Z,4.92
2023-02-01T00:10:58.795Z,4.95
2023-02-01T00:11:37.757Z,5.00
2023-02-01T00:12:37.738Z,5.07
2023-02-01T00:13:37.723Z,5.05
2023-02-01T00:14:37.699Z,5.04
2023-02-01T00:15:37.730Z,5.00
2023-02-01T00:16:58.671Z,4.98
2023-02-01T00:17:37.655Z,5.02
2023-02-01T00:18:37.654Z,4.95
2023-02-01T00:19:37.611Z,4.97
2023-02-01T00:20:37.595Z,4.98
2023-02-01T00:21:37.578Z,5.02
2023-02-01T00:22:58.555Z,5.00
2023-02-01T00:23:37.551Z,5.12
2023-02-01T00:24:37.517Z,5.02
2023-02-01T00:25:37.506Z,5.02
2023-02-01T00:26:37.576Z,5.00
2023-02-01T00:27:37.497Z,5.01
2023-02-01T00:28:58.444Z,5.02
2023-02-01T00:29:37.431Z,4.95
2023-02-01T00:30:37.455Z,4.98
2023-02-01T00:31:37.447Z,4.97
2023-02-01T00:32:37.365Z,5.01
2023-02-01T00:33:37.350Z,4.95
2023-02-01T00:34:58.323Z,4.97
2023-02-01T00:35:37.309Z,5.02
2023-02-01T00:36:37.281Z,5.01
2023-02-01T00:37:37.273Z,4.92
2023-02-01T00:38:37.251Z,5.00
2023-02-01T00:39:37.261Z,4.95
2023-02-01T00:40:58.222Z,4.95
2023-02-01T00:41:37.200Z,5.00
2023-02-01T00:42:37.174Z,5.00
2023-02-01T00:43:37.156Z,4.95
2023-02-01T00:44:37.133Z,5.13
2023-02-01T00:45:37.123Z,5.01
2023-02-01T00:46:58.111Z,5.02
2023-02-01T00:47:37.089Z,4.95
2023-02-01T00:48:37.064Z,5.04
2023-02-01T00:49:37.052Z,4.95
2023-02-01T00:50:37.044Z,4.98
2023-02-01T00:51:37.012Z,5.00
2023-02-01T00:52:57.983Z,4.95
2023-02-01T00:53:36.976Z,4.95
2023-02-01T00:54:36.942Z,5.04
2023-02-01T00:55:36.941Z,5.00
2023-02-01T00:56:36.914Z,4.95
2023-02-01T00:57:36.891Z,5.02
2023-02-01T00:58:57.868Z,4.95
2023-02-01T00:59:36.863Z,5.00
2023-02-01T01:00:36.869Z,5.10
2023-02-01T01:01:36.816Z,4.95
2023-02-01T01:02:36.791Z,4.90
2023-02-01T01:03:36.777Z,4.89
2023-02-01T01:04:57.762Z,4.95
2023-02-01T01:05:36.749Z,4.94
2023-02-01T01:06:36.721Z,4.79
2023-02-01T01:07:36.711Z,4.90
2023-02-01T01:08:36.693Z,4.82
2023-02-01T01:09:36.671Z,4.75
2023-02-01T01:10:57.650Z,4.79
2023-02-01T01:11:36.635Z,4.75
2023-02-01T01:12:36.613Z,4.75
2023-02-01T01:13:36.601Z,4.68
2023-02-01T01:14:36.573Z,4.67
2023-02-01T01:15:36.548Z,4.70
2023-02-01T01:16:57.530Z,4.67
2023-02-01T01:17:36.516Z,4.67
2023-02-01T01:18:36.485Z,4.74
2023-02-01T01:19:36.475Z,4.71
2023-02-01T01:20:36.456Z,4.82
2023-02-01T01:21:36.449Z,4.76
2023-02-01T01:22:57.418Z,4.79
2023-02-01T01:23:36.406Z,4.89
2023-02-01T01:24:36.382Z,4.87
2023-02-01T01:25:36.363Z,4.95
2023-02-01T01:26:36.352Z,4.86
2023-02-01T01:27:36.324Z,4.89
2023-02-01T01:28:57.308Z,4.84
2023-02-01T01:29:36.281Z,4.89
2023-02-01T01:30:36.280Z,4.82
2023-02-01T01:31:36.283Z,4.87
2023-02-01T01:32:36.228Z,4.94
2023-02-01T01:33:36.210Z,4.95
2023-02-01T01:34:57.181Z,4.92
2023-02-01T01:35:36.172Z,4.97
2023-02-01T01:36:36.159Z,5.04
2023-02-01T01:37:36.135Z,4.98
2023-02-01T01:38:36.113Z,5.05
2023-02-01T01:39:36.103Z,4.97
2023-02-01T01:40:57.071Z,5.08
2023-02-01T01:41:36.057Z,5.04
2023-02-01T01:42:36.039Z,5.05
2023-02-01T01:43:36.025Z,5.10
2023-02-01T01:44:36.002Z,5.13
2023-02-01T01:45:35.984Z,5.07
2023-02-01T01:46:57.020Z,5.04
2023-02-01T01:47:35.951Z,5.07
2023-02-01T01:48:35.925Z,5.20
2023-02-01T01:49:35.912Z,5.08
2023-02-01T01:50:35.886Z,5.05
2023-02-01T01:51:35.875Z,5.13
2023-02-01T01:52:56.868Z,5.13
2023-02-01T01:53:35.837Z,5.13
2023-02-01T01:54:35.812Z,5.16
2023-02-01T01:55:35.792Z,5.16
2023-02-01T01:56:35.822Z,5.18
2023-02-01T01:57:35.757Z,5.18
2023-02-01T01:58:56.741Z,5.20
2023-02-01T01:59:35.722Z,5.16
2023-02-01T02:00:35.738Z,5.13
2023-02-01T02:01:35.694Z,5.19
2023-02-01T02:02:35.657Z,5.10
2023-02-01T02:03:35.655Z,5.08
2023-02-01T02:04:56.622Z,5.18
2023-02-01T02:05:35.610Z,5.13
2023-02-01T02:06:35.593Z,5.16
2023-02-01T02:07:38.175Z,5.10
2023-02-01T02:08:35.541Z,5.18
2023-02-01T02:09:35.533Z,5.10
2023-02-01T02:10:56.513Z,5.10
2023-02-01T02:11:35.492Z,5.02
2023-02-01T02:12:35.473Z,5.13
2023-02-01T02:13:35.462Z,5.08
2023-02-01T02:14:35.434Z,5.10
2023-02-01T02:15:35.419Z,5.19
2023-02-01T02:16:56.416Z,5.15
2023-02-01T02:17:35.391Z,5.08
2023-02-01T02:18:35.367Z,5.04
2023-02-01T02:19:35.372Z,5.07
2023-02-01T02:20:35.319Z,5.13
2023-02-01T02:21:35.313Z,5.07
2023-02-01T02:22:56.288Z,5.05
2023-02-01T02:23:35.288Z,5.05
2023-02-01T02:24:35.250Z,5.05
2023-02-01T02:25:35.228Z,5.08
2023-02-01T02:26:35.275Z,5.12
2023-02-01T02:27:35.195Z,5.07
2023-02-01T02:28:56.175Z,5.04
2023-02-01T02:29:35.152Z,5.04
2023-02-01T02:30:35.157Z,5.13
2023-02-01T02:31:35.170Z,5.08
2023-02-01T02:32:35.106Z,5.07
2023-02-01T02:33:35.074Z,5.07
2023-02-01T02:34:56.067Z,5.08
2023-02-01T02:35:35.039Z,5.13
2023-02-01T02:36:35.026Z,5.13
2023-02-01T02:37:35.006Z,5.08
2023-02-01T02:38:34.976Z,5.12
2023-02-01T02:39:34.958Z,5.08
2023-02-01T02:40:55.953Z,5.13
2023-02-01T02:41:34.926Z,5.10
2023-02-01T02:42:34.905Z,5.15
2023-02-01T02:43:34.886Z,5.10
2023-02-01T02:44:34.864Z,5.13
2023-02-01T02:45:34.876Z,5.13
2023-02-01T02:46:55.825Z,5.15
2023-02-01T02:47:34.838Z,5.13
2023-02-01T02:48:34.790Z,5.08
2023-02-01T02:49:34.772Z,5.19
2023-02-01T02:50:34.746Z,5.12
2023-02-01T02:51:34.731Z,5.15
2023-02-01T02:52:55.708Z,5.12
2023-02-01T02:53:34.708Z,5.15
2023-02-01T02:54:34.673Z,5.05
2023-02-01T02:55:34.669Z,5.10
2023-02-01T02:56:34.636Z,5.08
2023-02-01T02:57:34.625Z,5.16
2023-02-01T02:58:55.624Z,5.10
2023-02-01T02:59:34.579Z,5.10
2023-02-01T03:00:34.568Z,5.12
2023-02-01T03:01:34.546Z,5.18
2023-02-01T03:02:34.580Z,5.16
2023-02-01T03:03:34.509Z,5.19
2023-02-01T03:04:55.489Z,5.20
2023-02-01T03:05:34.466Z,5.20
2023-02-01T03:06:34.453Z,5.22
2023-02-01T03:07:34.430Z,5.22
2023-02-01T03:08:34.412Z,5.26
2023-02-01T03:09:34.389Z,5.26
2023-02-01T03:10:55.387Z,5.20
2023-02-01T03:11:34.360Z,5.26
2023-02-01T03:12:34.340Z,5.33
2023-02-01T03:13:34.349Z,5.36
2023-02-01T03:14:34.298Z,5.26
2023-02-01T03:15:34.278Z,5.26
2023-02-01T03:16:55.261Z,5.31
2023-02-01T03:17:34.276Z,5.37
2023-02-01T03:18:34.220Z,5.33
2023-02-01T03:19:34.210Z,5.43
2023-02-01T03:20:34.202Z,5.41
2023-02-01T03:21:34.174Z,5.44
2023-02-01T03:22:55.150Z,5.47
2023-02-01T03:23:34.136Z,5.41
2023-02-01T03:24:34.330Z,5.40
2023-02-01T03:25:34.094Z,5.46
2023-02-01T03:26:34.110Z,5.40
2023-02-01T03:27:34.068Z,5.41
2023-02-01T03:28:55.040Z,5.38
2023-02-01T03:29:34.029Z,5.44
2023-02-01T03:30:34.034Z,5.44
2023-02-01T03:31:34.049Z,5.43
2023-02-01T03:32:33.971Z,5.33
2023-02-01T03:33:33.939Z,5.23
2023-02-01T03:34:54.944Z,5.26
2023-02-01T03:35:33.915Z,5.10
2023-02-01T03:36:33.888Z,5.13
2023-02-01T03:37:33.863Z,5.13
2023-02-01T03:38:33.856Z,5.19
2023-02-01T03:39:33.834Z,5.18
2023-02-01T03:40:54.829Z,5.18
2023-02-01T03:41:33.790Z,5.13
2023-02-01T03:42:33.792Z,5.15
2023-02-01T03:43:33.757Z,5.18
2023-02-01T03:44:33.753Z,5.19
2023-02-01T03:45:33.777Z,5.19
2023-02-01T03:46:54.699Z,5.19
2023-02-01T03:47:33.682Z,5.23
2023-02-01T03:48:33.661Z,5.20
2023-02-01T03:49:33.656Z,5.08
2023-02-01T03:50:33.635Z,5.15
2023-02-01T03:51:33.643Z,5.12
2023-02-01T03:52:54.593Z,5.10
2023-02-01T03:53:33.583Z,5.01
2023-02-01T03:54:33.563Z,5.05
2023-02-01T03:55:33.538Z,5.00
2023-02-01T03:56:33.517Z,4.95
2023-02-01T03:57:33.493Z,5.02
2023-02-01T03:58:54.484Z,5.01
2023-02-01T03:59:33.469Z,4.86
2023-02-01T04:00:33.453Z,4.98
2023-02-01T04:01:33.489Z,4.83
2023-02-01T04:02:33.422Z,4.87
2023-02-01T04:03:33.379Z,4.76
2023-02-01T04:04:54.363Z,4.83
2023-02-01T04:05:33.337Z,4.86
2023-02-01T04:06:33.329Z,4.82
2023-02-01T04:07:33.310Z,4.76
2023-02-01T04:08:33.299Z,4.75
2023-02-01T04:09:33.301Z,4.71
2023-02-01T04:10:54.260Z,4.76
2023-02-01T04:11:33.231Z,4.71
2023-02-01T04:12:33.217Z,4.78
2023-02-01T04:13:33.200Z,4.68
2023-02-01T04:14:33.188Z,4.76
2023-02-01T04:15:33.162Z,4.71
2023-02-01T04:16:54.157Z,4.75
2023-02-01T04:17:33.117Z,4.74
2023-02-01T04:18:33.106Z,4.82
2023-02-01T04:19:33.074Z,4.63
2023-02-01T04:20:33.056Z,4.63
2023-02-01T04:21:33.040Z,4.75
2023-02-01T04:22:54.026Z,4.68
2023-02-01T04:23:33.005Z,4.68
2023-02-01T04:24:32.987Z,4.68
2023-02-01T04:25:32.969Z,4.70
2023-02-01T04:26:33.019Z,4.66
2023-02-01T04:27:32.933Z,4.78
2023-02-01T04:28:53.940Z,4.67
2023-02-01T04:29:32.890Z,4.70
2023-02-01T04:30:32.934Z,4.75
2023-02-01T04:31:32.923Z,4.78
2023-02-01T04:32:32.829Z,4.71
2023-02-01T04:33:32.819Z,4.74
2023-02-01T04:34:53.788Z,4.68
2023-02-01T04:35:32.785Z,4.66
2023-02-01T04:36:32.749Z,4.67
2023-02-01T04:37:32.734Z,4.68
2023-02-01T04:38:32.719Z,4.71
2023-02-01T04:39:32.696Z,4.71
2023-02-01T04:40:53.684Z,4.71
2023-02-01T04:41:32.668Z,4.68
2023-02-01T04:42:32.637Z,4.67
2023-02-01T04:43:32.610Z,4.68
2023-02-01T04:44:33.161Z,4.74
2023-02-01T04:45:32.571Z,4.84
2023-02-01T04:46:53.561Z,4.76
2023-02-01T04:47:32.539Z,4.84
2023-02-01T04:48:32.525Z,4.84
2023-02-01T04:49:32.524Z,4.87
2023-02-01T04:50:32.474Z,4.89
2023-02-01T04:51:32.458Z,4.92
2023-02-01T04:52:53.445Z,4.92
2023-02-01T04:53:32.421Z,4.95
2023-02-01T04:54:32.415Z,5.01
2023-02-01T04:55:32.378Z,5.01
2023-02-01T04:56:32.376Z,5.00
2023-02-01T04:57:32.350Z,5.02
2023-02-01T04:58:53.333Z,5.02
2023-02-01T04:59:32.319Z,5.05
2023-02-01T05:00:32.293Z,5.00
2023-02-01T05:01:32.382Z,5.16
2023-02-01T05:02:32.253Z,5.07
2023-02-01T05:03:32.225Z,5.08
2023-02-01T05:04:53.284Z,5.23
2023-02-01T05:05:32.214Z,5.40
2023-02-01T05:06:32.171Z,5.43
2023-02-01T05:07:32.164Z,5.38
2023-02-01T05:08:32.135Z,5.29
2023-02-01T05:09:32.127Z,5.31
2023-02-01T05:10:53.110Z,5.28
2023-02-01T05:11:32.092Z,5.25
2023-02-01T05:12:32.079Z,5.26
2023-02-01T05:13:32.044Z,5.25
2023-02-01T05:14:32.026Z,5.20
2023-02-01T05:15:32.052Z,5.22
2023-02-01T05:16:52.990Z,5.18
2023-02-01T05:17:31.969Z,5.20
2023-02-01T05:18:31.947Z,5.18
2023-02-01T05:19:31.929Z,5.13
2023-02-01T05:20:31.903Z,5.16
2023-02-01T05:21:31.887Z,5.16
2023-02-01T05:22:52.879Z,5.12
2023-02-01T05:23:31.861Z,5.12
2023-02-01T05:24:31.833Z,5.15
2023-02-01T05:25:31.805Z,5.12
2023-02-01T05:26:31.931Z,5.12
2023-02-01T05:27:31.798Z,5.19
2023-02-01T05:28:52.760Z,5.18
2023-02-01T05:29:31.738Z,5.15
2023-02-01T05:30:31.732Z,5.22
2023-02-01T05:31:31.813Z,5.10
2023-02-01T05:32:31.789Z,5.10
2023-02-01T05:33:31.653Z,5.13
2023-02-01T05:34:52.673Z,5.12
2023-02-01T05:35:31.655Z,5.15
2023-02-01T05:36:31.608Z,5.15
2023-02-01T05:37:31.582Z,5.13
2023-02-01T05:38:31.571Z,5.13
2023-02-01T05:39:31.539Z,5.16
2023-02-01T05:40:52.529Z,5.07
2023-02-01T05:41:31.508Z,5.08
2023-02-01T05:42:31.497Z,5.07
2023-02-01T05:43:31.468Z,5.07
2023-02-01T05:44:31.457Z,5.01
2023-02-01T05:45:31.437Z,5.07
2023-02-01T05:46:52.425Z,5.07
2023-02-01T05:47:31.394Z,5.02
2023-02-01T05:48:31.403Z,5.07
2023-02-01T05:49:31.350Z,5.04
2023-02-01T05:50:31.338Z,5.05
2023-02-01T05:51:31.333Z,5.10
2023-02-01T05:52:52.305Z,5.05
2023-02-01T05:53:31.286Z,5.07
2023-02-01T05:54:31.263Z,5.02
2023-02-01T05:55:31.237Z,5.04
2023-02-01T05:56:31.219Z,5.00
2023-02-01T05:57:31.201Z,4.95
2023-02-01T05:58:52.196Z,4.97
2023-02-01T05:59:31.165Z,4.97
2023-02-01T06:00:31.148Z,5.05
2023-02-01T06:01:31.120Z,5.05
2023-02-01T06:02:31.122Z,5.05
2023-02-01T06:03:31.129Z,5.05
2023-02-01T06:04:52.090Z,5.10
2023-02-01T06:05:31.054Z,5.04
2023-02-01T06:06:31.054Z,5.08
2023-02-01T06:07:31.014Z,5.05
2023-02-01T06:08:30.991Z,5.07
2023-02-01T06:09:30.978Z,5.04
2023-02-01T06:10:51.960Z,5.04
2023-02-01T06:11:32.613Z,5.12
2023-02-01T06:12:30.922Z,5.05
2023-02-01T06:13:32.704Z,5.04
2023-02-01T06:14:30.874Z,5.07
2023-02-01T06:15:30.861Z,5.07
2023-02-01T06:16:51.846Z,5.08
2023-02-01T06:17:30.824Z,5.10
2023-02-01T06:18:30.816Z,5.10
2023-02-01T06:19:30.790Z,5.01
2023-02-01T06:20:30.792Z,5.07
2023-02-01T06:21:30.743Z,5.07
2023-02-01T06:22:51.735Z,5.01
2023-02-01T06:23:30.710Z,4.98
2023-02-01T06:24:30.692Z,5.04
2023-02-01T06:25:30.669Z,5.01
2023-02-01T06:26:30.709Z,4.98
2023-02-01T06:27:30.631Z,4.98
2023-02-01T06:28:51.620Z,4.97
2023-02-01T06:29:30.592Z,5.02
2023-02-01T06:30:30.591Z,4.98
2023-02-01T06:31:30.634Z,5.05
2023-02-01T06:32:30.544Z,5.04
2023-02-01T06:33:30.521Z,5.04
2023-02-01T06:34:51.500Z,5.13
2023-02-01T06:35:30.487Z,5.07
2023-02-01T06:36:30.468Z,5.13
2023-02-01T06:37:30.476Z,5.08
2023-02-01T06:38:30.463Z,5.15
2023-02-01T06:39:30.411Z,5.08
2023-02-01T06:40:51.394Z,5.10
2023-02-01T06:41:30.373Z,5.10
2023-02-01T06:42:30.355Z,5.13
2023-02-01T06:43:30.332Z,5.13
2023-02-01T06:44:30.320Z,5.16
2023-02-01T06:45:30.283Z,5.18
2023-02-01T06:46:51.338Z,5.15
2023-02-01T06:47:30.261Z,5.13
2023-02-01T06:48:30.249Z,5.12
2023-02-01T06:49:30.211Z,5.13
2023-02-01T06:50:30.244Z,5.10
2023-02-01T06:51:30.211Z,5.16
2023-02-01T06:52:51.166Z,5.13
2023-02-01T06:53:30.133Z,5.16
2023-02-01T06:54:30.121Z,5.12
2023-02-01T06:55:30.121Z,5.18
2023-02-01T06:56:30.087Z,5.18
2023-02-01T06:57:30.108Z,5.23
2023-02-01T06:58:51.052Z,5.19
2023-02-01T06:59:30.022Z,5.18
2023-02-01T07:00:30.052Z,5.15
2023-02-01T07:01:29.989Z,5.12
2023-02-01T07:02:29.976Z,5.08
2023-02-01T07:03:29.966Z,5.05
2023-02-01T07:04:50.941Z,5.05
2023-02-01T07:05:29.911Z,5.07
2023-02-01T07:06:29.901Z,5.04
2023-02-01T07:07:29.882Z,5.00
2023-02-01T07:08:29.862Z,4.95
2023-02-01T07:09:29.836Z,5.01
2023-02-01T07:10:50.825Z,4.83
2023-02-01T07:11:29.833Z,4.82
2023-02-01T07:12:29.791Z,4.76
2023-02-01T07:13:29.767Z,4.70
2023-02-01T07:14:29.752Z,4.64
2023-02-01T07:15:29.727Z,4.68
2023-02-01T07:16:50.715Z,4.60
2023-02-01T07:17:29.688Z,4.66
2023-02-01T07:18:29.674Z,4.66
2023-02-01T07:19:29.646Z,4.74
2023-02-01T07:20:29.785Z,4.66
2023-02-01T07:21:29.619Z,4.64
2023-02-01T07:22:50.607Z,4.60
2023-02-01T07:23:29.632Z,4.52
2023-02-01T07:24:29.551Z,4.39
2023-02-01T07:25:29.539Z,4.27
2023-02-01T07:26:29.541Z,4.22
2023-02-01T07:27:29.497Z,4.16
2023-02-01T07:28:50.474Z,4.13
2023-02-01T07:29:29.460Z,4.07
2023-02-01T07:30:29.472Z,4.04
2023-02-01T07:31:29.420Z,3.95
2023-02-01T07:32:29.433Z,3.95
2023-02-01T07:33:29.397Z,4.03
2023-02-01T07:34:50.361Z,3.94
2023-02-01T07:35:29.366Z,3.96
2023-02-01T07:36:29.319Z,3.88
2023-02-01T07:37:29.310Z,3.96
2023-02-01T07:38:29.296Z,3.88
2023-02-01T07:39:29.266Z,3.99
2023-02-01T07:40:50.321Z,3.88
2023-02-01T07:41:29.233Z,3.92
2023-02-01T07:42:29.220Z,3.91
2023-02-01T07:43:29.195Z,4.02
2023-02-01T07:44:29.174Z,4.03
2023-02-01T07:45:29.174Z,4.07
2023-02-01T07:46:50.135Z,4.09
2023-02-01T07:47:29.111Z,4.39
2023-02-01T07:48:29.142Z,4.48
2023-02-01T07:49:29.070Z,4.52
2023-02-01T07:50:29.164Z,4.63
2023-02-01T07:51:29.041Z,4.53
2023-02-01T07:52:50.013Z,4.66
2023-02-01T07:53:28.998Z,4.67
2023-02-01T07:54:28.986Z,4.66
2023-02-01T07:55:28.955Z,4.79
2023-02-01T07:56:28.941Z,4.83
2023-02-01T07:57:28.935Z,4.90
2023-02-01T07:58:49.906Z,5.01
2023-02-01T07:59:28.884Z,5.16
2023-02-01T08:00:28.890Z,5.23
2023-02-01T08:01:28.851Z,5.44
2023-02-01T08:02:28.849Z,5.59
2023-02-01T08:03:28.813Z,5.73
2023-02-01T08:04:49.785Z,5.88
2023-02-01T08:05:28.783Z,5.99
2023-02-01T08:06:28.747Z,5.94
2023-02-01T08:07:28.744Z,5.94
2023-02-01T08:08:28.710Z,5.92
2023-02-01T08:09:28.691Z,5.99
2023-02-01T08:10:49.674Z,6.07
2023-02-01T08:11:28.664Z,6.06
2023-02-01T08:12:28.643Z,6.12
2023-02-01T08:13:28.636Z,6.25
2023-02-01T08:14:28.601Z,6.39
2023-02-01T08:15:28.616Z,6.57
2023-02-01T08:16:49.604Z,6.67
2023-02-01T08:17:28.597Z,6.87
2023-02-01T08:18:28.560Z,7.28
2023-02-01T08:19:28.516Z,7.95
2023-02-01T08:20:28.882Z,8.56
2023-02-01T08:21:28.477Z,8.96
2023-02-01T08:22:49.458Z,9.02
2023-02-01T08:23:28.444Z,8.86
2023-02-01T08:24:28.445Z,8.75
2023-02-01T08:25:28.407Z,8.52
2023-02-01T08:26:28.407Z,8.34
2023-02-01T08:27:28.382Z,8.28
2023-02-01T08:28:49.343Z,8.17
2023-02-01T08:29:28.334Z,8.23
2023-02-01T08:30:28.319Z,8.20
2023-02-01T08:31:28.382Z,8.27
2023-02-01T08:32:28.326Z,8.36
2023-02-01T08:33:28.263Z,8.42
2023-02-01T08:34:49.251Z,8.75
2023-02-01T08:35:42.482Z,9.29
2023-02-01T08:36:28.237Z,9.97
2023-02-01T08:37:28.192Z,10.79
2023-02-01T08:38:28.173Z,11.31
2023-02-01T08:39:28.159Z,11.25
2023-02-01T08:40:49.149Z,11.48
2023-02-01T08:41:28.133Z,11.38
2023-02-01T08:42:28.115Z,11.44
2023-02-01T08:43:28.094Z,11.37
2023-02-01T08:44:28.074Z,11.48
2023-02-01T08:45:28.067Z,11.68
2023-02-01T08:46:49.065Z,11.60
2023-02-01T08:47:28.085Z,11.35
2023-02-01T08:48:28.010Z,11.31
2023-02-01T08:49:28.067Z,11.08
2023-02-01T08:50:28.162Z,10.89
2023-02-01T08:51:27.965Z,10.61
2023-02-01T08:52:48.960Z,10.53
2023-02-01T08:53:27.931Z,10.31
2023-02-01T08:54:27.914Z,10.02
2023-02-01T08:55:27.902Z,9.87
2023-02-01T08:56:28.026Z,9.74
2023-02-01T08:57:27.867Z,9.62
2023-02-01T08:58:48.857Z,9.51
2023-02-01T08:59:30.248Z,9.39
2023-02-01T09:00:27.807Z,9.18
2023-02-01T09:01:27.803Z,9.00
2023-02-01T09:02:27.801Z,8.90
2023-02-01T09:03:27.774Z,8.89
2023-02-01T09:04:48.752Z,8.86
2023-02-01T09:05:34.995Z,8.75
2023-02-01T09:06:27.774Z,8.68
2023-02-01T09:07:27.706Z,8.54
2023-02-01T09:08:27.677Z,8.56
2023-02-01T09:09:27.667Z,8.46
2023-02-01T09:10:48.659Z,8.44
2023-02-01T09:11:27.746Z,8.27
2023-02-01T09:12:27.626Z,8.27
2023-02-01T09:13:27.618Z,8.18
2023-02-01T09:14:27.589Z,8.31
2023-02-01T09:15:27.600Z,8.38
2023-02-01T09:16:48.560Z,8.53
2023-02-01T09:18:27.510Z,8.72
2023-02-01T09:19:27.648Z,8.77
2023-02-01T09:20:27.520Z,8.72
2023-02-01T09:21:27.463Z,8.60
2023-02-01T09:22:48.447Z,8.44
2023-02-01T09:23:27.438Z,8.27
2023-02-01T09:24:27.484Z,8.28
2023-02-01T09:25:27.436Z,8.27
2023-02-01T09:26:32.147Z,8.18
2023-02-01T09:27:27.376Z,8.23
2023-02-01T09:28:48.346Z,8.21
2023-02-01T09:29:27.331Z,8.17
2023-02-01T09:30:29.137Z,8.28
2023-02-01T09:31:27.573Z,8.35
2023-02-01T09:32:27.421Z,8.35
2023-02-01T09:33:27.267Z,8.41
2023-02-01T09:34:48.240Z,8.50
2023-02-01T09:35:27.227Z,8.57
2023-02-01T09:36:28.792Z,8.61
2023-02-01T09:37:27.192Z,8.60
2023-02-01T09:38:27.173Z,8.52
2023-02-01T09:39:27.152Z,8.38
2023-02-01T09:40:48.142Z,8.31
2023-02-01T09:41:27.132Z,8.24
2023-02-01T09:42:27.838Z,8.11
2023-02-01T09:43:27.089Z,8.08
2023-02-01T09:44:30.025Z,8.02
2023-02-01T09:45:27.049Z,7.99
2023-02-01T09:46:48.027Z,7.87
2023-02-01T09:47:27.027Z,7.77
2023-02-01T09:48:27.343Z,7.67
2023-02-01T09:49:26.979Z,7.75
2023-02-01T09:50:27.240Z,7.55
2023-02-01T09:51:26.949Z,7.62
2023-02-01T09:52:47.929Z,7.62
2023-02-01T09:53:26.908Z,7.50
2023-02-01T09:54:26.971Z,7.47
2023-02-01T09:55:26.875Z,7.47
2023-02-01T09:56:26.863Z,7.39
2023-02-01T09:57:26.838Z,7.50
2023-02-01T09:58:47.822Z,7.39
2023-02-01T09:59:26.802Z,7.44
2023-02-01T10:00:27.150Z,7.44
2023-02-01T10:01:26.850Z,7.41
2023-02-01T10:02:26.751Z,7.39
2023-02-01T10:03:26.753Z,7.41
2023-02-01T10:04:47.708Z,7.48
2023-02-01T10:05:26.696Z,7.50
2023-02-01T10:06:26.685Z,7.53
2023-02-01T10:07:26.675Z,7.50
2023-02-01T10:08:26.642Z,7.59
2023-02-01T10:09:26.621Z,7.51
2023-02-01T10:10:47.604Z,7.58
2023-02-01T10:11:26.590Z,7.53
2023-02-01T10:12:26.571Z,7.62
2023-02-01T10:13:26.558Z,7.58
2023-02-01T10:14:26.595Z,7.59
2023-02-01T10:15:26.654Z,7.56
2023-02-01T10:16:47.585Z,7.55
2023-02-01T10:17:26.480Z,7.55
2023-02-01T10:18:26.461Z,7.59
2023-02-01T10:19:26.456Z,7.70
2023-02-01T10:20:26.777Z,7.66
2023-02-01T10:21:26.416Z,7.69
2023-02-01T10:23:34.051Z,7.72
2023-02-01T10:24:26.361Z,7.64
2023-02-01T10:25:26.338Z,7.70
2023-02-01T10:26:26.337Z,7.74
2023-02-01T10:27:26.302Z,7.90
2023-02-01T10:28:47.291Z,7.96
2023-02-01T10:29:26.281Z,7.93
2023-02-01T10:30:26.516Z,7.99
2023-02-01T10:31:26.329Z,8.13
2023-02-01T10:32:26.209Z,8.03
2023-02-01T10:33:26.191Z,8.09
2023-02-01T10:34:47.198Z,8.13
2023-02-01T10:35:26.162Z,8.20
2023-02-01T10:36:26.135Z,8.32
2023-02-01T10:37:26.134Z,8.45
2023-02-01T10:38:26.099Z,8.45
2023-02-01T10:39:26.097Z,8.45
2023-02-01T10:40:47.074Z,8.39
2023-02-01T10:41:26.052Z,8.46
2023-02-01T10:42:26.041Z,8.53
2023-02-01T10:43:26.031Z,8.54
2023-02-01T10:44:25.997Z,8.56
2023-02-01T10:45:26.004Z,8.57
2023-02-01T10:46:47.022Z,8.56
2023-02-01T10:47:25.953Z,8.56
2023-02-01T10:48:25.950Z,8.59
2023-02-01T10:49:25.916Z,8.53
2023-02-01T10:50:25.971Z,8.59
2023-02-01T10:51:25.885Z,8.75
2023-02-01T10:52:46.863Z,8.77
2023-02-01T10:53:25.842Z,9.02
2023-02-01T10:54:25.826Z,9.05
2023-02-01T10:55:25.805Z,9.29
2023-02-01T10:56:25.820Z,9.34
2023-02-01T10:57:25.794Z,9.49
2023-02-01T10:58:46.760Z,9.51
2023-02-01T10:59:25.757Z,9.36
2023-02-01T11:00:25.941Z,9.27
2023-02-01T11:01:25.707Z,9.02
2023-02-01T11:02:25.722Z,8.87
2023-02-01T11:03:25.670Z,8.84
2023-02-01T11:04:46.653Z,8.54
2023-02-01T11:05:25.634Z,8.50
2023-02-01T11:06:25.617Z,8.38
2023-02-01T11:07:25.602Z,8.27
2023-02-01T11:08:25.647Z,8.24
2023-02-01T11:09:25.589Z,8.17
2023-02-01T11:10:46.537Z,8.05
2023-02-01T11:11:25.524Z,7.98
2023-02-01T11:12:25.505Z,7.85
2023-02-01T11:13:25.508Z,7.75
2023-02-01T11:14:25.475Z,7.64
2023-02-01T11:15:25.926Z,7.69
2023-02-01T11:16:46.437Z,7.53
2023-02-01T11:17:25.419Z,7.62
2023-02-01T11:18:25.507Z,7.74
2023-02-01T11:19:25.386Z,7.64
2023-02-01T11:20:25.370Z,7.81
2023-02-01T11:21:25.373Z,7.83
2023-02-01T11:22:46.411Z,7.91
2023-02-01T11:23:25.453Z,7.91
2023-02-01T11:24:25.325Z,7.85
2023-02-01T11:25:25.778Z,7.80
2023-02-01T11:26:25.299Z,7.72
2023-02-01T11:27:27.536Z,7.69
2023-02-01T11:28:46.226Z,7.61
2023-02-01T11:29:25.215Z,7.61
2023-02-01T11:30:25.249Z,7.62
2023-02-01T11:31:25.219Z,7.56
2023-02-01T11:32:25.185Z,7.47
2023-02-01T11:33:25.145Z,7.47
2023-02-01T11:34:46.132Z,7.39
2023-02-01T11:35:25.556Z,7.44
2023-02-01T11:36:25.079Z,7.32
2023-02-01T11:37:25.065Z,7.28
2023-02-01T11:38:25.046Z,7.21
2023-02-01T11:39:25.084Z,7.28
2023-02-01T11:40:46.011Z,7.29
2023-02-01T11:41:24.997Z,7.25
2023-02-01T11:42:24.980Z,7.25
2023-02-01T11:43:24.961Z,7.28
2023-02-01T11:44:24.947Z,7.47
2023-02-01T11:45:24.920Z,7.48
2023-02-01T11:46:45.937Z,7.64
2023-02-01T11:47:24.887Z,7.67
2023-02-01T11:48:27.288Z,7.77
2023-02-01T11:49:24.848Z,7.87
2023-02-01T11:50:25.185Z,7.93
2023-02-01T11:51:24.814Z,7.88
2023-02-01T11:52:45.860Z,7.87
2023-02-01T11:53:24.778Z,7.96
2023-02-01T11:54:24.822Z,7.98
2023-02-01T11:55:24.749Z,8.09
2023-02-01T11:56:24.733Z,8.06
2023-02-01T11:57:24.716Z,8.09
2023-02-01T11:58:45.691Z,8.27
2023-02-01T11:59:24.676Z,8.42
2023-02-01T12:00:25.057Z,8.46
2023-02-01T12:01:26.128Z,8.57
2023-02-01T12:02:24.687Z,8.53
2023-02-01T12:03:24.626Z,8.71
2023-02-01T12:04:45.588Z,8.69
2023-02-01T12:05:24.563Z,8.69
2023-02-01T12:06:24.548Z,8.68
2023-02-01T12:07:24.530Z,8.71
2023-02-01T12:08:24.511Z,8.54
2023-02-01T12:09:24.492Z,8.52
2023-02-01T12:10:45.491Z,8.52
2023-02-01T12:11:24.456Z,8.50
2023-02-01T12:12:24.457Z,8.59
2023-02-01T12:13:24.448Z,8.68
2023-02-01T12:14:24.418Z,8.82
2023-02-01T12:15:24.389Z,8.75
2023-02-01T12:16:45.404Z,8.69
2023-02-01T12:17:24.358Z,8.60
2023-02-01T12:18:24.334Z,8.45
2023-02-01T12:19:24.324Z,8.31
2023-02-01T12:20:24.938Z,8.28
2023-02-01T12:21:24.278Z,8.23
2023-02-01T12:22:45.270Z,8.09
2023-02-01T12:23:24.248Z,8.06
2023-02-01T12:24:24.237Z,8.16
2023-02-01T12:25:24.216Z,8.17
2023-02-01T12:26:24.272Z,8.18
2023-02-01T12:27:24.175Z,8.11
2023-02-01T12:28:45.202Z,8.11
2023-02-01T12:29:24.144Z,8.16
2023-02-01T12:30:24.422Z,8.08
2023-02-01T12:31:24.156Z,8.09
2023-02-01T12:32:24.097Z,8.13
2023-02-01T12:33:24.081Z,8.06
2023-02-01T12:34:45.061Z,8.05
2023-02-01T12:35:24.053Z,8.24
2023-02-01T12:36:24.015Z,8.24
2023-02-01T12:37:23.991Z,8.03
2023-02-01T12:38:23.991Z,8.09
2023-02-01T12:39:23.963Z,8.03
2023-02-01T12:40:44.956Z,8.08
2023-02-01T12:41:23.926Z,8.18
2023-02-01T12:42:23.913Z,8.08
2023-02-01T12:43:23.900Z,8.13
2023-02-01T12:44:23.889Z,8.06
2023-02-01T12:45:23.857Z,8.09
2023-02-01T12:46:44.841Z,8.11
2023-02-01T12:47:23.840Z,8.11
2023-02-01T12:48:23.805Z,8.20
2023-02-01T12:49:23.787Z,8.32
2023-02-01T12:50:24.073Z,8.31
2023-02-01T12:51:23.761Z,8.35
2023-02-01T12:52:44.737Z,8.49
2023-02-01T12:53:23.737Z,8.54
2023-02-01T12:54:23.717Z,8.57
2023-02-01T12:55:23.677Z,8.54
2023-02-01T12:56:23.665Z,8.53
2023-02-01T12:57:23.646Z,8.52
2023-02-01T12:58:44.665Z,8.68
2023-02-01T12:59:23.609Z,8.68
2023-02-01T13:00:24.051Z,8.77
2023-02-01T13:01:23.631Z,8.72
2023-02-01T13:02:23.644Z,8.84
2023-02-01T13:03:23.546Z,8.82
2023-02-01T13:04:44.525Z,8.84
2023-02-01T13:05:23.518Z,8.78
2023-02-01T13:06:23.494Z,8.79
2023-02-01T13:07:23.475Z,8.77
2023-02-01T13:08:23.459Z,8.66
2023-02-01T13:09:23.480Z,8.59
2023-02-01T13:10:44.437Z,8.50
2023-02-01T13:11:23.398Z,8.59
2023-02-01T13:12:23.390Z,8.56
2023-02-01T13:13:23.367Z,8.50
2023-02-01T13:14:23.372Z,8.68
2023-02-01T13:15:23.322Z,8.68
2023-02-01T13:16:44.371Z,8.66
2023-02-01T13:17:23.297Z,8.77
2023-02-01T13:18:23.273Z,8.74
2023-02-01T13:19:23.265Z,8.79